KGUS

Grissom Air Reserve Base/Grissom Aeroplex

Airport
ICAO code
KGUS
IATA Code
GUS
Summary
ICAO Region
NAM
ICAO Territory
Location

Kokomo, Indiana

Serving
Kokomo
Elevation
812 ft
Coordinates
40° 39' 34" N , 86° 8' 51" W
KCC
Airport WX
Cumulonimbus
Metar
KGUS 181755Z AUTO 36007KT 10SM SCT038 22/13 A3015 RMK AO2 SLP209 T02230128 10223 20164 50001

Grissom Air Reserve Base, formerly Grissom Air Force Base, is a United States Air Force installation, located approximately 12 nm north of Kokomo, Indiana, USA. The facility is a joint use civil airport/military base shared with the Grissom Aeroplex which provides general aviation and charter service.

Airport map

Aerial View

SKYbrary Partners:

Safety knowledge contributed by: